Meteo Giornale » Osservazioni meteo Italia » Brescia-Ghedi

ore: 13:55 - Osservazioni Meteo Brescia-Ghedi
Lat. 45° 25' N Lon. 10° 17' E Alt. 102 metri s.l.m.

poco_nuvoloso

30 °C

Poco Nuvoloso

Temp. 24 Ore

20 °C

31 °C

Nord

5.5 Km/h

Dew point 16 °C

Umidità 42 %

Visibilità  10 Km

Il sole sorge alle ore 06:41

Il sole tramonta alle ore 19:55

Data e Ora Cielo e Fenomeni T °C DP °C Um. % Pres. hPa Vis. km Vento km/h
Oggi h: 13:55 poco_nuvoloso Poco Nuvoloso 30 16 42 1018 10 N 5.5
Oggi h: 12:55 sereno Sereno 30 16 42 1019 10 N 3.7
Oggi h: 11:55 poco_nuvoloso Poco Nuvoloso 29 15 42 1019 10 N 3.7
Oggi h: 10:55 poco_nuvoloso Poco Nuvoloso 28 15 45 1019 10 N 3.7
Oggi h: 09:55 poco_nuvoloso Poco Nuvoloso 26 17 57 1019 10 N 1.8
Oggi h: 08:55 sereno Sereno 24 16 60 1019 10 N 0
Oggi h: 07:55 sereno Sereno 21 17 77 1019 10 N 1.8
Oggi h: 06:55 sereno Sereno 20 16 77 1018 10 N 1.8
Oggi h: 05:55 sereno Sereno 20 16 77 1018 10 N 3.7
Oggi h: 04:55 sereno Sereno 21 16 73 1018 10 N 3.7
Oggi h: 03:55 sereno Sereno 21 16 73 1018 10 N 3.7
Oggi h: 02:55 sereno Sereno 21 16 73 1018 10 NE 7.4
Oggi h: 01:55 sereno Sereno 21 15 68 1018 10 N 5.5
Oggi h: 00:55 sereno Sereno 22 17 73 1018 10 NE 9.3
Ieri h: 23:55 sereno Sereno 24 17 64 1018 10 E/NE 11.1
Ieri h: 22:55 nuvoloso Nuvoloso 24 17 64 1018 10 NE 7.4
Ieri h: 21:55 sereno Sereno 25 17 61 1018 10 NE 7.4
Ieri h: 20:55 nuvoloso Nuvoloso 26 17 57 1017 10 E 7.4
Ieri h: 19:55 nuvoloso Nuvoloso 28 18 54 1016 10 E 11.1
Ieri h: 18:55 nuvoloso Nuvoloso 30 18 48 1016 10 SE 11.1
Ieri h: 17:55 nuvoloso Nuvoloso 30 18 48 1016 10 E 9.3
Ieri h: 16:55 nuvoloso Nuvoloso 31 17 43 1017 10 E/SE 11.1
Ieri h: 15:55 nuvoloso Nuvoloso 31 16 40 1017 10 E/SE 14.8